Terminal Aerodrome Forecast
Issued by NWS Upton, NY

Home | Current Version | Previous Version | Text Only | Print | Product List | Glossary On
Versions: 1 2 3 4 5 6 7 8 9 10 11 12 13 14 15 16 17 18 19 20 21 22 23 24 25 26 27 28 29 30
482
FTUS41 KOKX 251333 AAA
TAFJFK
TAF AMD
KJFK 251333Z 2514/2618 26007KT P6SM FEW250
     FM251600 24012KT P6SM FEW250
     FM251900 20014KT P6SM FEW250
     FM260100 24008KT P6SM SCT080
     FM261500 20010KT P6SM FEW100=

USA.gov is the U.S. government's official web portal to all federal, state and local government web resources and services.